sensor_id;sensor_type;location;lat;lon;timestamp;pressure;altitude;pressure_sealevel;temperature;humidity
21300;BME280;10809;49.476;11.016;2024-03-22T00:00:53;98951.72;;;9.31;56.54
21300;BME280;10809;49.476;11.016;2024-03-22T00:03:24;98948.25;;;9.29;56.59
21300;BME280;10809;49.476;11.016;2024-03-22T00:05:54;98953.59;;;9.28;56.37
21300;BME280;10809;49.476;11.016;2024-03-22T00:08:24;98947.50;;;9.26;56.40
21300;BME280;10809;49.476;11.016;2024-03-22T00:10:55;98951.09;;;9.25;56.39
21300;BME280;10809;49.476;11.016;2024-03-22T00:13:25;98947.75;;;9.20;56.57
21300;BME280;10809;49.476;11.016;2024-03-22T00:15:56;98941.69;;;9.18;56.31
21300;BME280;10809;49.476;11.016;2024-03-22T00:18:26;98935.59;;;9.16;56.79
21300;BME280;10809;49.476;11.016;2024-03-22T00:20:56;98937.44;;;9.14;56.50
21300;BME280;10809;49.476;11.016;2024-03-22T00:23:27;98934.91;;;9.11;56.52
21300;BME280;10809;49.476;11.016;2024-03-22T00:25:59;98938.56;;;9.08;56.53
21300;BME280;10809;49.476;11.016;2024-03-22T00:28:30;98932.53;;;9.05;56.57
21300;BME280;10809;49.476;11.016;2024-03-22T00:31:00;98928.22;;;9.02;56.95
21300;BME280;10809;49.476;11.016;2024-03-22T00:33:31;98927.41;;;9.00;56.68
21300;BME280;10809;49.476;11.016;2024-03-22T00:36:02;98927.53;;;8.97;56.59
21300;BME280;10809;49.476;11.016;2024-03-22T00:38:35;98921.53;;;8.94;56.30
21300;BME280;10809;49.476;11.016;2024-03-22T00:41:07;98918.09;;;8.92;56.57
21300;BME280;10809;49.476;11.016;2024-03-22T00:43:37;98919.97;;;8.88;56.49
21300;BME280;10809;49.476;11.016;2024-03-22T00:46:07;98917.47;;;8.85;56.43
21300;BME280;10809;49.476;11.016;2024-03-22T00:48:38;98915.81;;;8.83;56.69
21300;BME280;10809;49.476;11.016;2024-03-22T00:51:08;98913.28;;;8.80;56.82
21300;BME280;10809;49.476;11.016;2024-03-22T00:53:39;98913.41;;;8.77;56.75
21300;BME280;10809;49.476;11.016;2024-03-22T00:56:09;98908.25;;;8.74;56.90
21300;BME280;10809;49.476;11.016;2024-03-22T00:58:40;98913.66;;;8.71;56.77
21300;BME280;10809;49.476;11.016;2024-03-22T01:01:10;98904.91;;;8.69;56.70
21300;BME280;10809;49.476;11.016;2024-03-22T01:03:41;98904.16;;;8.65;57.00
21300;BME280;10809;49.476;11.016;2024-03-22T01:06:11;98901.63;;;8.62;56.58
21300;BME280;10809;49.476;11.016;2024-03-22T01:08:41;98904.31;;;8.61;57.02
21300;BME280;10809;49.476;11.016;2024-03-22T01:11:12;98896.56;;;8.56;56.73
21300;BME280;10809;49.476;11.016;2024-03-22T01:13:42;98887.88;;;8.54;57.02
21300;BME280;10809;49.476;11.016;2024-03-22T01:16:13;98893.25;;;8.51;57.05
21300;BME280;10809;49.476;11.016;2024-03-22T01:18:43;98893.31;;;8.50;56.95
21300;BME280;10809;49.476;11.016;2024-03-22T01:21:14;98896.06;;;8.47;56.83
21300;BME280;10809;49.476;11.016;2024-03-22T01:23:44;98886.47;;;8.44;56.92
21300;BME280;10809;49.476;11.016;2024-03-22T01:26:17;98877.84;;;8.41;56.81
21300;BME280;10809;49.476;11.016;2024-03-22T01:28:48;98887.56;;;8.39;57.06
21300;BME280;10809;49.476;11.016;2024-03-22T01:31:18;98887.69;;;8.36;56.86
21300;BME280;10809;49.476;11.016;2024-03-22T01:33:49;98899.22;;;8.33;56.84
21300;BME280;10809;49.476;11.016;2024-03-22T01:36:19;98901.06;;;8.31;57.13
21300;BME280;10809;49.476;11.016;2024-03-22T01:38:50;98894.09;;;8.29;56.80
21300;BME280;10809;49.476;11.016;2024-03-22T01:41:20;98897.78;;;8.25;56.84
21300;BME280;10809;49.476;11.016;2024-03-22T01:43:51;98903.16;;;8.22;56.75
21300;BME280;10809;49.476;11.016;2024-03-22T01:46:21;98899.75;;;8.18;56.75
21300;BME280;10809;49.476;11.016;2024-03-22T01:48:52;98893.75;;;8.15;56.91
21300;BME280;10809;49.476;11.016;2024-03-22T01:51:22;98897.41;;;8.11;56.82
21300;BME280;10809;49.476;11.016;2024-03-22T01:53:53;98908.06;;;8.08;57.03
21300;BME280;10809;49.476;11.016;2024-03-22T01:56:25;98902.06;;;8.04;56.99
21300;BME280;10809;49.476;11.016;2024-03-22T01:58:56;98893.41;;;8.01;56.73
21300;BME280;10809;49.476;11.016;2024-03-22T02:01:26;98892.69;;;7.96;56.87
21300;BME280;10809;49.476;11.016;2024-03-22T02:03:57;98882.31;;;7.91;57.13
21300;BME280;10809;49.476;11.016;2024-03-22T02:06:30;98876.31;;;7.88;56.93
21300;BME280;10809;49.476;11.016;2024-03-22T02:09:01;98872.03;;;7.83;57.03
21300;BME280;10809;49.476;11.016;2024-03-22T02:11:31;98867.78;;;7.79;56.91
21300;BME280;10809;49.476;11.016;2024-03-22T02:14:02;98859.06;;;7.77;57.00
21300;BME280;10809;49.476;11.016;2024-03-22T02:16:32;98854.84;;;7.73;56.99
21300;BME280;10809;49.476;11.016;2024-03-22T02:19:03;98845.25;;;7.71;57.01
21300;BME280;10809;49.476;11.016;2024-03-22T02:21:33;98851.50;;;7.68;57.08
21300;BME280;10809;49.476;11.016;2024-03-22T02:24:04;98849.91;;;7.64;57.15
21300;BME280;10809;49.476;11.016;2024-03-22T02:26:34;98841.22;;;7.61;57.12
21300;BME280;10809;49.476;11.016;2024-03-22T02:29:05;98843.97;;;7.58;57.03
21300;BME280;10809;49.476;11.016;2024-03-22T02:31:36;98844.94;;;7.55;57.44
21300;BME280;10809;49.476;11.016;2024-03-22T02:34:06;98846.75;;;7.53;57.23
21300;BME280;10809;49.476;11.016;2024-03-22T02:36:36;98849.47;;;7.52;57.16
21300;BME280;10809;49.476;11.016;2024-03-22T02:39:07;98839.94;;;7.48;57.30
21300;BME280;10809;49.476;11.016;2024-03-22T02:41:37;98834.78;;;7.45;57.13
21300;BME280;10809;49.476;11.016;2024-03-22T02:44:11;98839.22;;;7.43;57.10
21300;BME280;10809;49.476;11.016;2024-03-22T02:46:41;98836.66;;;7.41;57.05
21300;BME280;10809;49.476;11.016;2024-03-22T02:49:12;98837.63;;;7.39;57.21
21300;BME280;10809;49.476;11.016;2024-03-22T02:51:43;98833.31;;;7.36;57.27
21300;BME280;10809;49.476;11.016;2024-03-22T02:54:13;98829.00;;;7.34;57.11
21300;BME280;10809;49.476;11.016;2024-03-22T02:56:50;98818.53;;;7.32;57.26
21300;BME280;10809;49.476;11.016;2024-03-22T02:59:20;98822.97;;;7.30;57.36
21300;BME280;10809;49.476;11.016;2024-03-22T03:01:51;98824.00;;;7.26;57.03
21300;BME280;10809;49.476;11.016;2024-03-22T03:04:21;98833.72;;;7.24;57.05
21300;BME280;10809;49.476;11.016;2024-03-22T03:06:52;98819.84;;;7.19;57.07
21300;BME280;10809;49.476;11.016;2024-03-22T03:09:22;98808.56;;;7.16;57.09
21300;BME280;10809;49.476;11.016;2024-03-22T03:11:53;98813.91;;;7.14;57.18
21300;BME280;10809;49.476;11.016;2024-03-22T03:14:23;98810.50;;;7.11;57.29
21300;BME280;10809;49.476;11.016;2024-03-22T03:16:54;98809.69;;;7.09;57.22
21300;BME280;10809;49.476;11.016;2024-03-22T03:19:24;98806.28;;;7.05;57.48
21300;BME280;10809;49.476;11.016;2024-03-22T03:21:54;98804.59;;;7.03;57.36
21300;BME280;10809;49.476;11.016;2024-03-22T03:24:25;98803.78;;;7.01;57.33
21300;BME280;10809;49.476;11.016;2024-03-22T03:26:55;98817.00;;;6.99;57.43
21300;BME280;10809;49.476;11.016;2024-03-22T03:29:26;98819.69;;;6.98;57.38
21300;BME280;10809;49.476;11.016;2024-03-22T03:31:56;98811.03;;;6.94;57.43
21300;BME280;10809;49.476;11.016;2024-03-22T03:34:27;98814.59;;;6.93;57.60
21300;BME280;10809;49.476;11.016;2024-03-22T03:37:00;98813.75;;;6.91;57.50
21300;BME280;10809;49.476;11.016;2024-03-22T03:39:31;98808.53;;;6.90;57.59
21300;BME280;10809;49.476;11.016;2024-03-22T03:42:02;98812.94;;;6.89;57.50
21300;BME280;10809;49.476;11.016;2024-03-22T03:44:32;98808.59;;;6.88;57.56
21300;BME280;10809;49.476;11.016;2024-03-22T03:47:03;98812.16;;;6.87;57.63
21300;BME280;10809;49.476;11.016;2024-03-22T03:49:33;98811.28;;;6.87;57.58
21300;BME280;10809;49.476;11.016;2024-03-22T03:52:04;98814.84;;;6.86;57.74
21300;BME280;10809;49.476;11.016;2024-03-22T03:54:34;98807.00;;;6.84;57.66
21300;BME280;10809;49.476;11.016;2024-03-22T03:57:05;98811.38;;;6.84;57.73
21300;BME280;10809;49.476;11.016;2024-03-22T03:59:38;98817.53;;;6.84;57.91
21300;BME280;10809;49.476;11.016;2024-03-22T04:02:09;98807.03;;;6.83;57.86
21300;BME280;10809;49.476;11.016;2024-03-22T04:04:52;98813.13;;;6.83;57.88
21300;BME280;10809;49.476;11.016;2024-03-22T04:07:23;98807.94;;;6.82;57.76
21300;BME280;10809;49.476;11.016;2024-03-22T04:09:53;98808.84;;;6.81;58.02
21300;BME280;10809;49.476;11.016;2024-03-22T04:12:24;98806.22;;;6.81;57.94
21300;BME280;10809;49.476;11.016;2024-03-22T04:14:54;98807.13;;;6.80;57.99
21300;BME280;10809;49.476;11.016;2024-03-22T04:17:24;98807.19;;;6.78;57.70
21300;BME280;10809;49.476;11.016;2024-03-22T04:19:55;98809.88;;;6.77;57.74
21300;BME280;10809;49.476;11.016;2024-03-22T04:22:25;98809.03;;;6.75;57.78
21300;BME280;10809;49.476;11.016;2024-03-22T04:24:56;98801.25;;;6.72;57.63
21300;BME280;10809;49.476;11.016;2024-03-22T04:27:26;98801.31;;;6.70;57.74
21300;BME280;10809;49.476;11.016;2024-03-22T04:29:57;98808.38;;;6.68;57.71
21300;BME280;10809;49.476;11.016;2024-03-22T04:32:27;98795.31;;;6.65;57.78
21300;BME280;10809;49.476;11.016;2024-03-22T04:34:58;98806.75;;;6.64;57.82
21300;BME280;10809;49.476;11.016;2024-03-22T04:37:28;98800.69;;;6.62;57.73
21300;BME280;10809;49.476;11.016;2024-03-22T04:39:59;98801.66;;;6.60;57.88
21300;BME280;10809;49.476;11.016;2024-03-22T04:42:29;98801.69;;;6.58;57.93
21300;BME280;10809;49.476;11.016;2024-03-22T04:45:00;98807.84;;;6.57;57.85
21300;BME280;10809;49.476;11.016;2024-03-22T04:47:30;98807.91;;;6.56;57.91
21300;BME280;10809;49.476;11.016;2024-03-22T04:50:01;98814.06;;;6.55;58.20
21300;BME280;10809;49.476;11.016;2024-03-22T04:52:31;98818.47;;;6.54;58.13
21300;BME280;10809;49.476;11.016;2024-03-22T04:55:02;98807.16;;;6.52;57.89
21300;BME280;10809;49.476;11.016;2024-03-22T04:57:32;98808.03;;;6.51;58.00
21300;BME280;10809;49.476;11.016;2024-03-22T05:00:03;98808.97;;;6.50;58.14
21300;BME280;10809;49.476;11.016;2024-03-22T05:02:34;98809.00;;;6.49;58.04
21300;BME280;10809;49.476;11.016;2024-03-22T05:05:04;98810.78;;;6.48;58.06
21300;BME280;10809;49.476;11.016;2024-03-22T05:07:35;98806.44;;;6.47;57.93
21300;BME280;10809;49.476;11.016;2024-03-22T05:10:06;98799.50;;;6.45;57.97
21300;BME280;10809;49.476;11.016;2024-03-22T05:12:36;98799.56;;;6.43;58.01
21300;BME280;10809;49.476;11.016;2024-03-22T05:15:07;98804.81;;;6.43;57.88
21300;BME280;10809;49.476;11.016;2024-03-22T05:17:37;98804.91;;;6.40;57.90
21300;BME280;10809;49.476;11.016;2024-03-22T05:20:09;98803.22;;;6.38;57.97
21300;BME280;10809;49.476;11.016;2024-03-22T05:22:41;98798.88;;;6.37;57.99
21300;BME280;10809;49.476;11.016;2024-03-22T05:25:11;98795.41;;;6.35;58.06
21300;BME280;10809;49.476;11.016;2024-03-22T05:27:43;98796.38;;;6.32;58.01
21300;BME280;10809;49.476;11.016;2024-03-22T05:30:14;98797.31;;;6.31;58.05
21300;BME280;10809;49.476;11.016;2024-03-22T05:32:44;98792.09;;;6.30;58.05
21300;BME280;10809;49.476;11.016;2024-03-22T05:35:15;98789.50;;;6.28;58.11
21300;BME280;10809;49.476;11.016;2024-03-22T05:37:45;98782.50;;;6.27;57.94
21300;BME280;10809;49.476;11.016;2024-03-22T05:40:16;98779.09;;;6.25;58.12
21300;BME280;10809;49.476;11.016;2024-03-22T05:42:46;98773.81;;;6.25;58.23
21300;BME280;10809;49.476;11.016;2024-03-22T05:45:17;98770.31;;;6.25;58.31
21300;BME280;10809;49.476;11.016;2024-03-22T05:47:47;98772.03;;;6.26;58.37
21300;BME280;10809;49.476;11.016;2024-03-22T05:50:18;98772.91;;;6.26;58.57
21300;BME280;10809;49.476;11.016;2024-03-22T05:52:53;98767.56;;;6.29;58.83
21300;BME280;10809;49.476;11.016;2024-03-22T05:55:24;98765.75;;;6.31;58.59
21300;BME280;10809;49.476;11.016;2024-03-22T05:57:57;98757.75;;;6.34;58.89
21300;BME280;10809;49.476;11.016;2024-03-22T06:00:27;98766.44;;;6.36;58.92
21300;BME280;10809;49.476;11.016;2024-03-22T06:02:58;98766.34;;;6.39;58.93
21300;BME280;10809;49.476;11.016;2024-03-22T06:05:28;98760.16;;;6.42;58.88
21300;BME280;10809;49.476;11.016;2024-03-22T06:07:59;98763.56;;;6.44;59.04
21300;BME280;10809;49.476;11.016;2024-03-22T06:10:29;98759.03;;;6.49;59.04
21300;BME280;10809;49.476;11.016;2024-03-22T06:13:00;98751.03;;;6.52;59.12
21300;BME280;10809;49.476;11.016;2024-03-22T06:15:30;98753.53;;;6.56;59.25
21300;BME280;10809;49.476;11.016;2024-03-22T06:18:01;98741.19;;;6.58;59.08
21300;BME280;10809;49.476;11.016;2024-03-22T06:20:31;98734.91;;;6.62;59.03
21300;BME280;10809;49.476;11.016;2024-03-22T06:23:02;98733.03;;;6.66;59.43
21300;BME280;10809;49.476;11.016;2024-03-22T06:25:39;98726.69;;;6.71;59.35
21300;BME280;10809;49.476;11.016;2024-03-22T06:28:09;98725.69;;;6.75;59.45
21300;BME280;10809;49.476;11.016;2024-03-22T06:30:39;98721.94;;;6.82;59.52
21300;BME280;10809;49.476;11.016;2024-03-22T06:33:10;98730.50;;;6.89;59.50
21300;BME280;10809;49.476;11.016;2024-03-22T06:35:41;98721.47;;;6.96;59.73
21300;BME280;10809;49.476;11.016;2024-03-22T06:38:11;98718.63;;;7.02;59.68
21300;BME280;10809;49.476;11.016;2024-03-22T06:40:42;98722.78;;;7.09;59.92
21300;BME280;10809;49.476;11.016;2024-03-22T06:43:12;98725.25;;;7.13;59.61
21300;BME280;10809;49.476;11.016;2024-03-22T06:45:43;98723.28;;;7.20;59.53
21300;BME280;10809;49.476;11.016;2024-03-22T06:48:13;98719.56;;;7.25;59.87
21300;BME280;10809;49.476;11.016;2024-03-22T06:50:57;98721.06;;;7.32;59.79
21300;BME280;10809;49.476;11.016;2024-03-22T06:53:27;98719.94;;;7.39;59.65
21300;BME280;10809;49.476;11.016;2024-03-22T06:55:58;98719.72;;;7.45;59.60
21300;BME280;10809;49.476;11.016;2024-03-22T06:58:28;98718.63;;;7.51;59.83
21300;BME280;10809;49.476;11.016;2024-03-22T07:00:59;98705.25;;;7.57;59.92
21300;BME280;10809;49.476;11.016;2024-03-22T07:03:29;98698.81;;;7.64;59.68
21300;BME280;10809;49.476;11.016;2024-03-22T07:06:00;98695.06;;;7.69;59.85
21300;BME280;10809;49.476;11.016;2024-03-22T07:08:34;98694.84;;;7.75;59.54
21300;BME280;10809;49.476;11.016;2024-03-22T07:11:05;98703.44;;;7.80;59.59
21300;BME280;10809;49.476;11.016;2024-03-22T07:13:36;98698.88;;;7.86;59.58
21300;BME280;10809;49.476;11.016;2024-03-22T07:16:06;98703.09;;;7.90;59.58
21300;BME280;10809;49.476;11.016;2024-03-22T07:18:37;98693.28;;;7.93;59.44
21300;BME280;10809;49.476;11.016;2024-03-22T07:21:10;98694.88;;;7.97;59.39
21300;BME280;10809;49.476;11.016;2024-03-22T07:23:41;98693.91;;;8.00;59.67
21300;BME280;10809;49.476;11.016;2024-03-22T07:26:11;98701.78;;;8.01;59.19
21300;BME280;10809;49.476;11.016;2024-03-22T07:28:42;98694.63;;;8.03;59.47
21300;BME280;10809;49.476;11.016;2024-03-22T07:31:12;98695.44;;;8.05;59.28
21300;BME280;10809;49.476;11.016;2024-03-22T07:33:42;98686.53;;;8.08;59.29
21300;BME280;10809;49.476;11.016;2024-03-22T07:36:15;98689.13;;;8.09;59.24
21300;BME280;10809;49.476;11.016;2024-03-22T07:38:47;98689.00;;;8.12;59.63
21300;BME280;10809;49.476;11.016;2024-03-22T07:41:19;98688.03;;;8.15;59.74
21300;BME280;10809;49.476;11.016;2024-03-22T07:43:49;98687.91;;;8.18;59.58
21300;BME280;10809;49.476;11.016;2024-03-22T07:46:20;98688.63;;;8.21;59.69
21300;BME280;10809;49.476;11.016;2024-03-22T07:48:50;98687.53;;;8.27;59.93
21300;BME280;10809;49.476;11.016;2024-03-22T07:51:21;98683.84;;;8.31;59.81
21300;BME280;10809;49.476;11.016;2024-03-22T07:53:51;98691.59;;;8.35;59.75
21300;BME280;10809;49.476;11.016;2024-03-22T07:56:22;98684.34;;;8.40;59.97
21300;BME280;10809;49.476;11.016;2024-03-22T07:58:52;98683.22;;;8.46;59.90
21300;BME280;10809;49.476;11.016;2024-03-22T08:01:23;98680.41;;;8.50;59.84
21300;BME280;10809;49.476;11.016;2024-03-22T08:03:53;98682.78;;;8.56;60.03
21300;BME280;10809;49.476;11.016;2024-03-22T08:06:27;98679.91;;;8.62;60.26
21300;BME280;10809;49.476;11.016;2024-03-22T08:08:57;98678.81;;;8.68;59.96
21300;BME280;10809;49.476;11.016;2024-03-22T08:11:28;98685.56;;;8.75;60.25
21300;BME280;10809;49.476;11.016;2024-03-22T08:13:58;98678.16;;;8.83;60.26
21300;BME280;10809;49.476;11.016;2024-03-22T08:16:33;98676.06;;;8.91;60.27
21300;BME280;10809;49.476;11.016;2024-03-22T08:19:04;98674.88;;;8.98;59.85
21300;BME280;10809;49.476;11.016;2024-03-22T08:21:34;98674.53;;;9.05;60.20
21300;BME280;10809;49.476;11.016;2024-03-22T08:24:05;98668.97;;;9.11;60.01
21300;BME280;10809;49.476;11.016;2024-03-22T08:26:38;98667.72;;;9.20;60.48
21300;BME280;10809;49.476;11.016;2024-03-22T08:29:08;98665.66;;;9.26;59.86
21300;BME280;10809;49.476;11.016;2024-03-22T08:31:40;98660.03;;;9.34;60.17
21300;BME280;10809;49.476;11.016;2024-03-22T08:34:10;98657.03;;;9.41;60.36
21300;BME280;10809;49.476;11.016;2024-03-22T08:36:41;98662.91;;;9.48;59.94
21300;BME280;10809;49.476;11.016;2024-03-22T08:39:11;98668.66;;;9.57;60.08
21300;BME280;10809;49.476;11.016;2024-03-22T08:41:41;98663.00;;;9.65;60.28
21300;BME280;10809;49.476;11.016;2024-03-22T08:44:12;98652.84;;;9.75;60.58
21300;BME280;10809;49.476;11.016;2024-03-22T08:46:42;98662.88;;;9.87;60.58
21300;BME280;10809;49.476;11.016;2024-03-22T08:49:13;98649.84;;;10.01;61.03
21300;BME280;10809;49.476;11.016;2024-03-22T08:51:43;98649.91;;;10.18;61.71
21300;BME280;10809;49.476;11.016;2024-03-22T08:54:13;98650.75;;;10.37;61.33
21300;BME280;10809;49.476;11.016;2024-03-22T08:56:44;98654.09;;;10.57;62.13
21300;BME280;10809;49.476;11.016;2024-03-22T08:59:15;98644.13;;;10.79;62.72
21300;BME280;10809;49.476;11.016;2024-03-22T09:01:45;98645.22;;;11.09;63.46
21300;BME280;10809;49.476;11.016;2024-03-22T09:04:19;98641.59;;;11.45;63.75
21300;BME280;10809;49.476;11.016;2024-03-22T09:06:50;98636.16;;;11.79;63.42
21300;BME280;10809;49.476;11.016;2024-03-22T09:09:20;98630.94;;;12.08;62.54
21300;BME280;10809;49.476;11.016;2024-03-22T09:11:51;98630.47;;;12.31;61.93
21300;BME280;10809;49.476;11.016;2024-03-22T09:14:22;98624.81;;;12.53;61.37
21300;BME280;10809;49.476;11.016;2024-03-22T09:16:52;98624.50;;;12.73;61.26
21300;BME280;10809;49.476;11.016;2024-03-22T09:19:22;98620.66;;;12.92;61.15
21300;BME280;10809;49.476;11.016;2024-03-22T09:21:53;98619.63;;;13.09;60.89
21300;BME280;10809;49.476;11.016;2024-03-22T09:24:23;98616.81;;;13.26;60.69
21300;BME280;10809;49.476;11.016;2024-03-22T09:26:54;98615.94;;;13.40;60.45
21300;BME280;10809;49.476;11.016;2024-03-22T09:29:25;98611.63;;;13.53;59.77
21300;BME280;10809;49.476;11.016;2024-03-22T09:31:55;98605.63;;;13.63;59.57
21300;BME280;10809;49.476;11.016;2024-03-22T09:34:29;98599.94;;;13.69;59.33
21300;BME280;10809;49.476;11.016;2024-03-22T09:37:00;98591.44;;;13.77;59.37
21300;BME280;10809;49.476;11.016;2024-03-22T09:39:31;98591.06;;;13.83;59.02
21300;BME280;10809;49.476;11.016;2024-03-22T09:42:05;98588.09;;;13.87;59.01
21300;BME280;10809;49.476;11.016;2024-03-22T09:44:37;98585.03;;;13.93;58.69
21300;BME280;10809;49.476;11.016;2024-03-22T09:47:09;98577.53;;;14.00;58.78
21300;BME280;10809;49.476;11.016;2024-03-22T09:49:41;98569.13;;;14.06;58.61
21300;BME280;10809;49.476;11.016;2024-03-22T09:52:19;98563.41;;;14.12;58.44
21300;BME280;10809;49.476;11.016;2024-03-22T09:54:50;98551.47;;;14.17;58.24
21300;BME280;10809;49.476;11.016;2024-03-22T09:57:22;98544.88;;;14.23;57.82
21300;BME280;10809;49.476;11.016;2024-03-22T09:59:56;98540.09;;;14.28;57.80
21300;BME280;10809;49.476;11.016;2024-03-22T10:02:27;98537.13;;;14.32;57.39
21300;BME280;10809;49.476;11.016;2024-03-22T10:04:57;98534.16;;;14.37;57.63
21300;BME280;10809;49.476;11.016;2024-03-22T10:07:28;98534.66;;;14.43;57.61
21300;BME280;10809;49.476;11.016;2024-03-22T10:09:59;98526.25;;;14.49;57.61
21300;BME280;10809;49.476;11.016;2024-03-22T10:12:29;98519.72;;;14.53;57.26
21300;BME280;10809;49.476;11.016;2024-03-22T10:15:00;98521.03;;;14.60;57.51
21300;BME280;10809;49.476;11.016;2024-03-22T10:17:31;98518.69;;;14.68;57.35
21300;BME280;10809;49.476;11.016;2024-03-22T10:20:01;98511.13;;;14.75;57.10
21300;BME280;10809;49.476;11.016;2024-03-22T10:22:32;98507.94;;;14.83;56.99
21300;BME280;10809;49.476;11.016;2024-03-22T10:25:06;98510.06;;;14.90;56.61
21300;BME280;10809;49.476;11.016;2024-03-22T10:27:40;98504.50;;;14.93;56.38
21300;BME280;10809;49.476;11.016;2024-03-22T10:30:12;98501.53;;;14.98;56.23
21300;BME280;10809;49.476;11.016;2024-03-22T10:32:45;98497.81;;;15.00;55.97
21300;BME280;10809;49.476;11.016;2024-03-22T10:35:16;98494.06;;;15.03;55.85
21300;BME280;10809;49.476;11.016;2024-03-22T10:37:47;98490.19;;;15.07;55.70
21300;BME280;10809;49.476;11.016;2024-03-22T10:40:18;98480.19;;;15.10;55.72
21300;BME280;10809;49.476;11.016;2024-03-22T10:42:50;98478.88;;;15.16;55.14
21300;BME280;10809;49.476;11.016;2024-03-22T10:45:21;98488.38;;;15.20;55.48
21300;BME280;10809;49.476;11.016;2024-03-22T10:47:55;98482.72;;;15.24;55.23
21300;BME280;10809;49.476;11.016;2024-03-22T10:50:26;98475.34;;;15.28;54.79
21300;BME280;10809;49.476;11.016;2024-03-22T10:52:59;98477.88;;;15.29;54.92
21300;BME280;10809;49.476;11.016;2024-03-22T10:55:37;98467.97;;;15.31;54.84
21300;BME280;10809;49.476;11.016;2024-03-22T10:58:15;98461.53;;;15.34;54.41
21300;BME280;10809;49.476;11.016;2024-03-22T11:00:47;98456.00;;;15.37;53.87
21300;BME280;10809;49.476;11.016;2024-03-22T11:03:21;98450.56;;;15.38;53.99
21300;BME280;10809;49.476;11.016;2024-03-22T11:05:55;98445.25;;;15.38;53.65
21300;BME280;10809;49.476;11.016;2024-03-22T11:08:30;98446.09;;;15.39;53.66
21300;BME280;10809;49.476;11.016;2024-03-22T11:11:10;98443.44;;;15.39;53.89
21300;BME280;10809;49.476;11.016;2024-03-22T11:13:41;98444.28;;;15.39;53.72
21300;BME280;10809;49.476;11.016;2024-03-22T11:16:11;98437.97;;;15.40;53.71
21300;BME280;10809;49.476;11.016;2024-03-22T11:18:42;98436.91;;;15.43;53.59
21300;BME280;10809;49.476;11.016;2024-03-22T11:21:12;98432.31;;;15.45;53.48
21300;BME280;10809;49.476;11.016;2024-03-22T11:23:46;98416.94;;;15.48;53.78
21300;BME280;10809;49.476;11.016;2024-03-22T11:26:17;98419.25;;;15.53;54.10
21300;BME280;10809;49.476;11.016;2024-03-22T11:28:48;98423.28;;;15.58;53.91
21300;BME280;10809;49.476;11.016;2024-03-22T11:31:20;98410.34;;;15.65;53.88
21300;BME280;10809;49.476;11.016;2024-03-22T11:33:55;98406.25;;;15.72;53.84
21300;BME280;10809;49.476;11.016;2024-03-22T11:36:26;98405.66;;;15.79;53.89
21300;BME280;10809;49.476;11.016;2024-03-22T11:38:57;98395.38;;;15.86;53.46
21300;BME280;10809;49.476;11.016;2024-03-22T11:41:29;98388.59;;;15.93;53.17
21300;BME280;10809;49.476;11.016;2024-03-22T11:44:01;98381.72;;;16.01;53.04
21300;BME280;10809;49.476;11.016;2024-03-22T11:46:32;98384.78;;;16.08;53.07
21300;BME280;10809;49.476;11.016;2024-03-22T11:49:02;98372.66;;;16.15;52.59
21300;BME280;10809;49.476;11.016;2024-03-22T11:51:33;98372.06;;;16.22;52.41
21300;BME280;10809;49.476;11.016;2024-03-22T11:54:03;98367.13;;;16.29;52.34
21300;BME280;10809;49.476;11.016;2024-03-22T11:56:35;98354.88;;;16.37;51.98
21300;BME280;10809;49.476;11.016;2024-03-22T11:59:06;98347.34;;;16.42;51.54
21300;BME280;10809;49.476;11.016;2024-03-22T12:01:36;98347.81;;;16.48;51.55
21300;BME280;10809;49.476;11.016;2024-03-22T12:04:07;98351.97;;;16.52;51.49
21300;BME280;10809;49.476;11.016;2024-03-22T12:06:41;98347.00;;;16.58;51.86
21300;BME280;10809;49.476;11.016;2024-03-22T12:09:12;98337.50;;;16.65;51.60
21300;BME280;10809;49.476;11.016;2024-03-22T12:11:43;98344.91;;;16.73;51.27
21300;BME280;10809;49.476;11.016;2024-03-22T12:14:14;98334.59;;;16.79;51.23
21300;BME280;10809;49.476;11.016;2024-03-22T12:16:44;98326.06;;;16.85;51.13
21300;BME280;10809;49.476;11.016;2024-03-22T12:19:15;98322.16;;;16.89;51.19
21300;BME280;10809;49.476;11.016;2024-03-22T12:21:45;98317.28;;;16.94;50.97
21300;BME280;10809;49.476;11.016;2024-03-22T12:24:15;98317.03;;;16.97;50.91
21300;BME280;10809;49.476;11.016;2024-03-22T12:26:46;98322.28;;;16.99;50.81
21300;BME280;10809;49.476;11.016;2024-03-22T12:29:17;98308.03;;;16.98;50.84
21300;BME280;10809;49.476;11.016;2024-03-22T12:31:54;98306.91;;;17.01;50.92
21300;BME280;10809;49.476;11.016;2024-03-22T12:34:24;98304.13;;;17.02;50.83
21300;BME280;10809;49.476;11.016;2024-03-22T12:36:55;98301.22;;;17.05;50.57
21300;BME280;10809;49.476;11.016;2024-03-22T12:39:26;98296.44;;;17.09;50.38
21300;BME280;10809;49.476;11.016;2024-03-22T12:41:56;98295.28;;;17.13;50.20
21300;BME280;10809;49.476;11.016;2024-03-22T12:44:29;98283.34;;;17.17;50.31
21300;BME280;10809;49.476;11.016;2024-03-22T12:47:00;98280.41;;;17.20;49.86
21300;BME280;10809;49.476;11.016;2024-03-22T12:49:30;98266.91;;;17.21;49.59
21300;BME280;10809;49.476;11.016;2024-03-22T12:52:02;98259.59;;;17.23;49.55
21300;BME280;10809;49.476;11.016;2024-03-22T12:54:33;98256.81;;;17.25;49.54
21300;BME280;10809;49.476;11.016;2024-03-22T12:57:03;98255.94;;;17.24;49.07
21300;BME280;10809;49.476;11.016;2024-03-22T12:59:34;98255.94;;;17.24;48.91
21300;BME280;10809;49.476;11.016;2024-03-22T13:02:04;98243.53;;;17.23;48.68
21300;BME280;10809;49.476;11.016;2024-03-22T13:04:35;98245.50;;;17.21;48.24
21300;BME280;10809;49.476;11.016;2024-03-22T13:07:05;98245.75;;;17.18;48.33
21300;BME280;10809;49.476;11.016;2024-03-22T13:09:36;98238.72;;;17.17;48.53
21300;BME280;10809;49.476;11.016;2024-03-22T13:12:07;98234.31;;;17.16;48.49
21300;BME280;10809;49.476;11.016;2024-03-22T13:14:38;98229.94;;;17.15;48.20
21300;BME280;10809;49.476;11.016;2024-03-22T13:17:08;98226.53;;;17.13;48.01